Ischia Jet — IOBI — position and weather

sailwx.info

Track history (hours):
 
Tides and Currents Weather Stations Pressure Air Temp Water Temp Dewpoint Dewpoint Depression Visibility Wind Speed Wind Dir Waves Ship Positions

Ischia Jet

Last reported at 2016-Jul-24 14:31 UTC. Time now 2016-Jul-25 00:22 UTC.
Position N 40°38' E 014°21'.

Length 42 m; draft 1.2 m.

Type: Passenger vessel. MMSI: 247048700.

Date/timePositionNaut miles runAvg speedWind from/ knotsBaromVisibWave heightAir tempDewpointWater temp
2016-Jul-24 14:31N 40°38' E 014°21'7 7.2
2016-Jul-24 13:33N 40°33' E 014°14'3 2.2
2016-Jul-24 12:07N 40°36' E 014°17'3 5.5
2016-Jul-24 11:33N 40°33' E 014°14'6 6.4
2016-Jul-24 10:33N 40°40' E 014°16'10 8.6
2016-Jul-24 09:22N 40°50' E 014°17'1613.0
2016-Jul-24 08:07N 40°34' E 014°15'712.3
2016-Jul-24 07:33N 40°38' E 014°23'0 0.0
2016-Jul-24 06:32N 40°38' E 014°23'6 0.4
2016-Jul-23 16:33N 40°42' E 014°29'1110.7
2016-Jul-23 15:34N 40°48' E 014°17'1414.1
2016-Jul-23 14:33N 40°34' E 014°15'1 0.6
2016-Jul-23 13:33N 40°33' E 014°14'8 7.7
2016-Jul-23 12:33N 40°38' E 014°23'8 7.6
2016-Jul-23 11:33N 40°33' E 014°14'0 0.0
2016-Jul-23 10:33N 40°33' E 014°14'2 2.0
2016-Jul-23 09:33N 40°35' E 014°17'5 5.4
2016-Jul-23 08:33N 40°38' E 014°22'7 4.7
2016-Jul-23 07:08N 40°34' E 014°15'7 8.7
2016-Jul-23 06:20N 40°38' E 014°23'6 0.4
2016-Jul-22 16:33N 40°42' E 014°29'1313.4
2016-Jul-22 15:33N 40°33' E 014°14'8 7.5
2016-Jul-22 14:32N 40°38' E 014°23'8 7.9
2016-Jul-22 13:33N 40°33' E 014°14'8 7.7
2016-Jul-22 12:33N 40°38' E 014°23'8 7.6
2016-Jul-22 11:33N 40°33' E 014°14'7 7.1
2016-Jul-22 10:33N 40°40' E 014°17'9 7.5
2016-Jul-22 09:21N 40°49' E 014°17'1619.2
2016-Jul-22 08:32N 40°33' E 014°14'3 1.9
2016-Jul-22 07:11N 40°35' E 014°17'11 6.8
2016-Jul-22 05:33N 40°42' E 014°29'0 0.0
2016-Jul-21 15:16N 40°42' E 014°29'910.6
2016-Jul-21 14:25N 40°37' E 014°18'4 5.0
2016-Jul-21 13:31N 40°33' E 014°14'8 7.9
2016-Jul-21 12:33N 40°38' E 014°23'8 7.7
2016-Jul-21 11:33N 40°33' E 014°14'7 7.2
2016-Jul-21 10:32N 40°40' E 014°18'9 7.8
2016-Jul-21 09:23N 40°49' E 014°17'1618.7
2016-Jul-21 08:32N 40°33' E 014°14'5 4.7
2016-Jul-21 07:31N 40°37' E 014°19'3 2.7
2016-Jul-21 06:18N 40°38' E 014°23'6 0.4
2016-Jul-20 15:04N 40°42' E 014°28'611.2
2016-Jul-20 14:33N 40°38' E 014°23'8 6.6
2016-Jul-20 13:24N 40°33' E 014°14'8 8.9
2016-Jul-20 12:33N 40°38' E 014°23'8 7.7
2016-Jul-20 11:33N 40°33' E 014°14'1 1.2
2016-Jul-20 10:33N 40°34' E 014°16'1512.9
2016-Jul-20 09:23N 40°49' E 014°17'1619.0
2016-Jul-20 08:32N 40°33' E 014°14'8 7.3
2016-Jul-20 07:29N 40°38' E 014°23'2 1.7
2016-Jul-20 06:10N 40°40' E 014°24'4 0.3
2016-Jul-19 15:04N 40°42' E 014°28'610.7
2016-Jul-19 14:32N 40°38' E 014°23'8 6.4
2016-Jul-19 13:19N 40°33' E 014°14'8 8.2
2016-Jul-19 12:22N 40°38' E 014°23'8 9.6
2016-Jul-19 11:33N 40°33' E 014°14'10 9.0
2016-Jul-19 10:29N 40°43' E 014°17'3 2.2
2016-Jul-19 09:14N 40°46' E 014°18'1218.5
2016-Jul-19 08:34N 40°33' E 014°14'0 0.1
2016-Jul-19 07:07N 40°33' E 014°15'8 9.4
2016-Jul-19 06:19N 40°38' E 014°23'6 0.4
2016-Jul-18 15:08N 40°42' E 014°28'911.7
2016-Jul-18 14:23N 40°37' E 014°19'5 5.7
2016-Jul-18 13:33N 40°33' E 014°14'8 6.5
2016-Jul-18 12:22N 40°38' E 014°23'8 9.3
2016-Jul-18 11:33N 40°33' E 014°14'0 0.0
2016-Jul-18 10:29N 40°33' E 014°14'5 2.3
2016-Jul-18 08:29N 40°37' E 014°19'0 0.4
2016-Jul-18 07:16N 40°36' E 014°18'4 4.4
2016-Jul-18 06:17N 40°39' E 014°23'4 0.3
2016-Jul-17 14:23N 40°37' E 014°18'4 3.9
2016-Jul-17 13:14N 40°33' E 014°14'811.2
2016-Jul-17 12:33N 40°38' E 014°23'8 7.6
2016-Jul-17 11:33N 40°33' E 014°14'12 5.3
2016-Jul-17 09:13N 40°46' E 014°17'1216.4
2016-Jul-17 08:29N 40°33' E 014°14'5 4.0
2016-Jul-17 07:20N 40°37' E 014°19'6 5.2
2016-Jul-17 06:14N 40°40' E 014°25'9 0.5
2016-Jul-16 12:04N 40°34' E 014°15'0 0.0
2016-Jul-16 08:25N 40°34' E 014°15'4 4.2
2016-Jul-16 07:21N 40°37' E 014°19'3 3.0
2016-Jul-16 06:13N 40°39' E 014°23'9 0.6
2016-Jul-15 15:13N 40°33' E 014°14'0 0.0
2016-Jul-15 14:30N 40°33' E 014°14'0 0.0
2016-Jul-15 13:25N 40°33' E 014°14'4 3.6
2016-Jul-15 12:13N 40°37' E 014°18'4 5.9
2016-Jul-15 11:30N 40°33' E 014°14'9 9.4
2016-Jul-15 10:32N 40°42' E 014°15'4 2.7
2016-Jul-15 09:11N 40°45' E 014°17'1215.7
2016-Jul-15 08:24N 40°33' E 014°14'1 0.5
2016-Jul-15 07:14N 40°34' E 014°15'1 0.0
2016-Jul-14 15:19N 40°33' E 014°14'  
Track history (hours):
 
Tides and Currents Weather Stations Pressure Air Temp Water Temp Dewpoint Dewpoint Depression Visibility Wind Speed Wind Dir Waves Ship Positions

Ischia Jet

Last reported at 2016-Jul-24 14:31 UTC. Time now 2016-Jul-25 00:22 UTC.
Position N 40°38' E 014°21'.

Length 42 m; draft 1.2 m.

Type: Passenger vessel. MMSI: 247048700.

Date/timePositionNaut miles runAvg speedWind from/ knotsBaromVisibWave heightAir tempDewpointWater temp
2016-Jul-24 14:31N 40°38' E 014°21'7 7.2
2016-Jul-24 13:33N 40°33' E 014°14'3 2.2
2016-Jul-24 12:07N 40°36' E 014°17'3 5.5
2016-Jul-24 11:33N 40°33' E 014°14'6 6.4
2016-Jul-24 10:33N 40°40' E 014°16'10 8.6
2016-Jul-24 09:22N 40°50' E 014°17'1613.0
2016-Jul-24 08:07N 40°34' E 014°15'712.3
2016-Jul-24 07:33N 40°38' E 014°23'0 0.0
2016-Jul-24 06:32N 40°38' E 014°23'6 0.4
2016-Jul-23 16:33N 40°42' E 014°29'1110.7
2016-Jul-23 15:34N 40°48' E 014°17'1414.1
2016-Jul-23 14:33N 40°34' E 014°15'1 0.6
2016-Jul-23 13:33N 40°33' E 014°14'8 7.7
2016-Jul-23 12:33N 40°38' E 014°23'8 7.6
2016-Jul-23 11:33N 40°33' E 014°14'0 0.0
2016-Jul-23 10:33N 40°33' E 014°14'2 2.0
2016-Jul-23 09:33N 40°35' E 014°17'5 5.4
2016-Jul-23 08:33N 40°38' E 014°22'7 4.7
2016-Jul-23 07:08N 40°34' E 014°15'7 8.7
2016-Jul-23 06:20N 40°38' E 014°23'6 0.4
2016-Jul-22 16:33N 40°42' E 014°29'1313.4
2016-Jul-22 15:33N 40°33' E 014°14'8 7.5
2016-Jul-22 14:32N 40°38' E 014°23'8 7.9
2016-Jul-22 13:33N 40°33' E 014°14'8 7.7
2016-Jul-22 12:33N 40°38' E 014°23'8 7.6
2016-Jul-22 11:33N 40°33' E 014°14'7 7.1
2016-Jul-22 10:33N 40°40' E 014°17'9 7.5
2016-Jul-22 09:21N 40°49' E 014°17'1619.2
2016-Jul-22 08:32N 40°33' E 014°14'3 1.9
2016-Jul-22 07:11N 40°35' E 014°17'11 6.8
2016-Jul-22 05:33N 40°42' E 014°29'0 0.0
2016-Jul-21 15:16N 40°42' E 014°29'910.6
2016-Jul-21 14:25N 40°37' E 014°18'4 5.0
2016-Jul-21 13:31N 40°33' E 014°14'8 7.9
2016-Jul-21 12:33N 40°38' E 014°23'8 7.7
2016-Jul-21 11:33N 40°33' E 014°14'7 7.2
2016-Jul-21 10:32N 40°40' E 014°18'9 7.8
2016-Jul-21 09:23N 40°49' E 014°17'1618.7
2016-Jul-21 08:32N 40°33' E 014°14'5 4.7
2016-Jul-21 07:31N 40°37' E 014°19'3 2.7
2016-Jul-21 06:18N 40°38' E 014°23'6 0.4
2016-Jul-20 15:04N 40°42' E 014°28'611.2
2016-Jul-20 14:33N 40°38' E 014°23'8 6.6
2016-Jul-20 13:24N 40°33' E 014°14'8 8.9
2016-Jul-20 12:33N 40°38' E 014°23'8 7.7
2016-Jul-20 11:33N 40°33' E 014°14'1 1.2
2016-Jul-20 10:33N 40°34' E 014°16'1512.9
2016-Jul-20 09:23N 40°49' E 014°17'1619.0
2016-Jul-20 08:32N 40°33' E 014°14'8 7.3
2016-Jul-20 07:29N 40°38' E 014°23'2 1.7
2016-Jul-20 06:10N 40°40' E 014°24'4 0.3
2016-Jul-19 15:04N 40°42' E 014°28'610.7
2016-Jul-19 14:32N 40°38' E 014°23'8 6.4
2016-Jul-19 13:19N 40°33' E 014°14'8 8.2
2016-Jul-19 12:22N 40°38' E 014°23'8 9.6
2016-Jul-19 11:33N 40°33' E 014°14'10 9.0
2016-Jul-19 10:29N 40°43' E 014°17'3 2.2
2016-Jul-19 09:14N 40°46' E 014°18'1218.5
2016-Jul-19 08:34N 40°33' E 014°14'0 0.1
2016-Jul-19 07:07N 40°33' E 014°15'8 9.4
2016-Jul-19 06:19N 40°38' E 014°23'6 0.4
2016-Jul-18 15:08N 40°42' E 014°28'911.7
2016-Jul-18 14:23N 40°37' E 014°19'5 5.7
2016-Jul-18 13:33N 40°33' E 014°14'8 6.5
2016-Jul-18 12:22N 40°38' E 014°23'8 9.3
2016-Jul-18 11:33N 40°33' E 014°14'0 0.0
2016-Jul-18 10:29N 40°33' E 014°14'5 2.3
2016-Jul-18 08:29N 40°37' E 014°19'0 0.4
2016-Jul-18 07:16N 40°36' E 014°18'4 4.4
2016-Jul-18 06:17N 40°39' E 014°23'4 0.3
2016-Jul-17 14:23N 40°37' E 014°18'4 3.9
2016-Jul-17 13:14N 40°33' E 014°14'811.2
2016-Jul-17 12:33N 40°38' E 014°23'8 7.6
2016-Jul-17 11:33N 40°33' E 014°14'12 5.3
2016-Jul-17 09:13N 40°46' E 014°17'1216.4
2016-Jul-17 08:29N 40°33' E 014°14'5 4.0
2016-Jul-17 07:20N 40°37' E 014°19'6 5.2
2016-Jul-17 06:14N 40°40' E 014°25'9 0.5
2016-Jul-16 12:04N 40°34' E 014°15'0 0.0
2016-Jul-16 08:25N 40°34' E 014°15'4 4.2
2016-Jul-16 07:21N 40°37' E 014°19'3 3.0
2016-Jul-16 06:13N 40°39' E 014°23'9 0.6
2016-Jul-15 15:13N 40°33' E 014°14'0 0.0
2016-Jul-15 14:30N 40°33' E 014°14'0 0.0
2016-Jul-15 13:25N 40°33' E 014°14'4 3.6
2016-Jul-15 12:13N 40°37' E 014°18'4 5.9
2016-Jul-15 11:30N 40°33' E 014°14'9 9.4
2016-Jul-15 10:32N 40°42' E 014°15'4 2.7
2016-Jul-15 09:11N 40°45' E 014°17'1215.7
2016-Jul-15 08:24N 40°33' E 014°14'1 0.5
2016-Jul-15 07:14N 40°34' E 014°15'1 0.0
2016-Jul-14 15:19N 40°33' E 014°14'  

Dump ship's entire track history